Time;durP1;ratioP1;P1;durP2;ratioP2;P2;SDS_P1;SDS_P2;PMS_P1;PMS_P2;Temp;Humidity;BMP_temperature;BMP_pressure;BME280_temperature;BME280_humidity;BME280_pressure;Samples;Min_cycle;Max_cycle;Signal;HPM_P1;HPM_P2
2022/07/25 00:00:47;;;;;;;11.48;10.27;;;;;;;;;;5033096;28;20027;-72
2022/07/25 00:03:13;;;;;;;10.40;9.50;;;;;;;;;;5035112;28;20113;-74
2022/07/25 00:05:38;;;;;;;11.40;10.40;;;;;;;;;;5040829;28;20029;-75
2022/07/25 00:08:04;;;;;;;11.85;10.65;;;;;;;;;;5033940;28;20028;-73
2022/07/25 00:10:29;;;;;;;11.30;10.30;;;;;;;;;;5041696;28;20029;-74
2022/07/25 00:12:54;;;;;;;12.00;10.95;;;;;;;;;;5041367;28;20124;-73
2022/07/25 00:15:20;;;;;;;11.52;10.43;;;;;;;;;;5032147;28;20090;-72
2022/07/25 00:17:45;;;;;;;11.93;10.82;;;;;;;;;;5033048;28;20029;-72
2022/07/25 00:20:10;;;;;;;13.60;11.00;;;;;;;;;;5040122;28;20029;-72
2022/07/25 00:22:36;;;;;;;11.63;10.63;;;;;;;;;;5030456;28;20025;-73
2022/07/25 00:25:01;;;;;;;11.70;10.70;;;;;;;;;;5035276;28;20033;-73
2022/07/25 00:27:27;;;;;;;10.57;9.57;;;;;;;;;;5041753;28;20480;-72
2022/07/25 00:29:52;;;;;;;10.60;9.60;;;;;;;;;;5041688;28;20317;-74
2022/07/25 00:32:17;;;;;;;11.40;9.88;;;;;;;;;;5031383;28;20534;-74
2022/07/25 00:34:43;;;;;;;11.35;10.35;;;;;;;;;;5036633;28;20048;-73
2022/07/25 00:37:08;;;;;;;12.45;10.45;;;;;;;;;;5034817;28;20028;-72
2022/07/25 00:39:33;;;;;;;11.63;10.63;;;;;;;;;;5041839;28;20529;-72
2022/07/25 00:41:59;;;;;;;10.82;9.80;;;;;;;;;;5030904;28;20060;-73
2022/07/25 00:44:25;;;;;;;11.93;10.45;;;;;;;;;;5039998;28;20445;-72
2022/07/25 00:46:51;;;;;;;11.00;10.00;;;;;;;;;;5041548;28;20041;-72
2022/07/25 00:49:16;;;;;;;11.35;10.38;;;;;;;;;;5040827;28;20048;-73
2022/07/25 00:51:42;;;;;;;11.68;10.75;;;;;;;;;;5028564;28;20020;-73
2022/07/25 00:54:08;;;;;;;11.20;10.10;;;;;;;;;;5039814;28;20499;-73
2022/07/25 00:56:34;;;;;;;11.05;10.05;;;;;;;;;;5041311;28;20029;-72
2022/07/25 00:58:59;;;;;;;10.63;9.63;;;;;;;;;;5041205;28;20027;-73
2022/07/25 01:01:25;;;;;;;10.38;9.38;;;;;;;;;;5029138;28;20056;-73
2022/07/25 01:03:50;;;;;;;11.10;10.07;;;;;;;;;;5037517;28;20421;-73
2022/07/25 01:06:16;;;;;;;11.50;10.35;;;;;;;;;;5029048;28;20083;-73
2022/07/25 01:08:41;;;;;;;11.65;10.45;;;;;;;;;;5041064;28;20029;-74
2022/07/25 01:11:07;;;;;;;10.43;9.43;;;;;;;;;;5041158;28;20055;-73
2022/07/25 01:13:33;;;;;;;10.05;9.25;;;;;;;;;;5041574;28;20025;-72
2022/07/25 01:15:58;;;;;;;11.05;10.00;;;;;;;;;;5031184;28;20032;-74
2022/07/25 01:18:24;;;;;;;15.13;10.48;;;;;;;;;;5028996;28;20025;-72
2022/07/25 01:20:49;;;;;;;11.25;10.07;;;;;;;;;;5036347;28;20384;-72
2022/07/25 01:23:14;;;;;;;13.25;9.27;;;;;;;;;;5039279;28;20021;-72
2022/07/25 01:25:40;;;;;;;10.65;9.55;;;;;;;;;;5041777;28;20029;-73
2022/07/25 01:28:05;;;;;;;10.85;9.88;;;;;;;;;;5040826;28;20021;-74
2022/07/25 01:30:31;;;;;;;10.40;9.50;;;;;;;;;;5040576;28;20028;-73
2022/07/25 01:32:56;;;;;;;11.95;10.75;;;;;;;;;;5039584;28;20051;-74
2022/07/25 01:35:21;;;;;;;11.13;9.95;;;;;;;;;;5039214;28;20387;-73
2022/07/25 01:37:47;;;;;;;11.60;10.60;;;;;;;;;;5030749;28;20087;-73
2022/07/25 01:40:13;;;;;;;10.77;9.88;;;;;;;;;;5039068;28;20021;-73
2022/07/25 01:42:38;;;;;;;10.07;9.18;;;;;;;;;;5040537;28;20028;-72
2022/07/25 01:45:05;;;;;;;10.15;9.35;;;;;;;;;;5039857;28;20510;-71
2022/07/25 01:47:30;;;;;;;9.68;8.88;;;;;;;;;;5041071;28;20032;-74
2022/07/25 01:49:55;;;;;;;9.90;8.90;;;;;;;;;;5040666;28;20087;-73
2022/07/25 01:52:21;;;;;;;10.88;9.25;;;;;;;;;;5039380;28;20029;-73
2022/07/25 01:54:46;;;;;;;10.10;9.25;;;;;;;;;;5039525;28;20384;-73
2022/07/25 01:57:11;;;;;;;9.75;8.95;;;;;;;;;;5038501;28;20064;-72
2022/07/25 01:59:40;;;;;;;9.52;8.77;;;;;;;;;;5040358;28;20029;-72
2022/07/25 02:02:07;;;;;;;9.73;8.93;;;;;;;;;;5039437;28;20899;-73
2022/07/25 02:04:33;;;;;;;9.90;9.00;;;;;;;;;;5039584;28;20036;-72
2022/07/25 02:06:58;;;;;;;9.98;9.10;;;;;;;;;;5040034;28;20349;-72
2022/07/25 02:09:23;;;;;;;10.95;9.95;;;;;;;;;;5040853;28;20162;-73
2022/07/25 02:11:49;;;;;;;10.40;9.50;;;;;;;;;;5038769;28;20048;-72
2022/07/25 02:14:14;;;;;;;11.55;10.60;;;;;;;;;;5039778;28;20136;-73
2022/07/25 02:16:39;;;;;;;12.25;11.00;;;;;;;;;;5039334;28;20029;-73
2022/07/25 02:19:05;;;;;;;10.70;9.63;;;;;;;;;;5038301;28;20021;-70
2022/07/25 02:21:30;;;;;;;11.48;10.38;;;;;;;;;;5040199;28;20021;-73
2022/07/25 02:23:55;;;;;;;10.93;9.82;;;;;;;;;;5039412;28;20629;-73
2022/07/25 02:26:21;;;;;;;10.80;9.43;;;;;;;;;;5040108;28;20037;-72
2022/07/25 02:28:48;;;;;;;9.63;8.57;;;;;;;;;;5039721;28;20028;-72
2022/07/25 02:31:13;;;;;;;9.82;8.98;;;;;;;;;;5038601;28;20021;-74
2022/07/25 02:33:38;;;;;;;9.75;8.90;;;;;;;;;;5038663;28;20027;-73
2022/07/25 02:36:04;;;;;;;9.95;9.00;;;;;;;;;;5039661;28;20094;-73
2022/07/25 02:38:29;;;;;;;11.23;10.23;;;;;;;;;;5039854;28;20032;-73
2022/07/25 02:40:55;;;;;;;11.68;10.63;;;;;;;;;;5038952;28;20079;-73
2022/07/25 02:43:20;;;;;;;9.68;8.88;;;;;;;;;;5039470;28;20587;-72
2022/07/25 02:45:45;;;;;;;11.25;10.20;;;;;;;;;;5039983;28;20036;-72
2022/07/25 02:48:11;;;;;;;11.30;10.20;;;;;;;;;;5040679;28;20048;-73
2022/07/25 02:50:37;;;;;;;12.43;11.05;;;;;;;;;;5031835;28;20032;-73
2022/07/25 02:53:03;;;;;;;13.40;10.48;;;;;;;;;;5030671;28;20349;-73
2022/07/25 02:55:29;;;;;;;10.13;9.18;;;;;;;;;;5039526;28;20028;-73
2022/07/25 02:57:54;;;;;;;10.13;9.23;;;;;;;;;;5039823;28;20403;-72
2022/07/25 03:00:19;;;;;;;9.98;9.02;;;;;;;;;;5039145;28;20154;-73
2022/07/25 03:02:45;;;;;;;10.52;9.45;;;;;;;;;;5039409;28;20417;-72
2022/07/25 03:05:13;;;;;;;9.63;8.68;;;;;;;;;;5039580;28;20095;-72
2022/07/25 03:07:38;;;;;;;10.90;9.45;;;;;;;;;;5038800;28;20395;-72
2022/07/25 03:10:05;;;;;;;10.80;9.35;;;;;;;;;;5041243;28;20489;-73
2022/07/25 03:12:31;;;;;;;10.00;9.20;;;;;;;;;;5033295;28;20039;-73
2022/07/25 03:14:57;;;;;;;10.10;9.10;;;;;;;;;;5043608;28;20036;-73
2022/07/25 03:17:22;;;;;;;13.65;8.88;;;;;;;;;;5041910;28;20041;-73
2022/07/25 03:19:48;;;;;;;9.40;8.60;;;;;;;;;;5043077;28;20086;-72
2022/07/25 03:22:13;;;;;;;9.52;8.63;;;;;;;;;;5043090;28;21281;-73
2022/07/25 03:24:38;;;;;;;10.10;9.13;;;;;;;;;;5042608;28;20039;-72
2022/07/25 03:27:04;;;;;;;9.32;8.40;;;;;;;;;;5042647;28;20025;-74
2022/07/25 03:29:29;;;;;;;10.70;9.60;;;;;;;;;;5041726;28;20437;-72
2022/07/25 03:31:54;;;;;;;12.05;9.80;;;;;;;;;;5042758;28;20025;-74
2022/07/25 03:34:20;;;;;;;10.15;9.15;;;;;;;;;;5033228;28;20072;-73
2022/07/25 03:36:45;;;;;;;9.05;8.32;;;;;;;;;;5042251;28;20037;-73
2022/07/25 03:39:11;;;;;;;10.23;8.70;;;;;;;;;;5042800;28;20021;-73
2022/07/25 03:41:36;;;;;;;9.32;8.55;;;;;;;;;;5042760;28;20480;-73
2022/07/25 03:44:01;;;;;;;9.40;8.60;;;;;;;;;;5042270;28;20043;-73
2022/07/25 03:46:27;;;;;;;10.13;8.55;;;;;;;;;;5035241;28;20033;-73
2022/07/25 03:48:54;;;;;;;9.68;8.70;;;;;;;;;;5040910;28;20021;-73
2022/07/25 03:51:19;;;;;;;8.70;7.80;;;;;;;;;;5041183;28;20060;-72
2022/07/25 03:54:02;;;;;;;8.20;7.55;;;;;;;;;;5040293;28;20083;-74
2022/07/25 03:56:28;;;;;;;10.65;9.38;;;;;;;;;;5029865;28;20090;-74
2022/07/25 03:58:54;;;;;;;10.30;9.23;;;;;;;;;;5029638;28;20017;-74
2022/07/25 04:01:19;;;;;;;10.35;9.07;;;;;;;;;;5027989;28;20025;-73
2022/07/25 04:03:45;;;;;;;9.43;8.52;;;;;;;;;;5030104;28;20017;-73
2022/07/25 04:06:10;;;;;;;9.63;8.77;;;;;;;;;;5030504;28;20615;-73
2022/07/25 04:08:35;;;;;;;9.85;8.98;;;;;;;;;;5030604;28;20482;-72
2022/07/25 04:11:01;;;;;;;9.95;8.93;;;;;;;;;;5028927;28;20036;-71
2022/07/25 04:13:26;;;;;;;9.60;8.65;;;;;;;;;;5030186;28;20094;-70
2022/07/25 04:15:51;;;;;;;9.60;8.60;;;;;;;;;;5029375;28;20052;-71
2022/07/25 04:18:17;;;;;;;10.18;9.32;;;;;;;;;;5030022;28;20040;-71
2022/07/25 04:20:42;;;;;;;10.35;9.35;;;;;;;;;;5032162;28;20364;-71
2022/07/25 04:23:07;;;;;;;10.68;9.65;;;;;;;;;;5042864;28;20040;-71
2022/07/25 04:25:33;;;;;;;10.90;9.85;;;;;;;;;;5042443;28;20107;-71
2022/07/25 04:27:58;;;;;;;11.68;10.68;;;;;;;;;;5041185;28;20087;-73
2022/07/25 04:30:23;;;;;;;11.32;10.30;;;;;;;;;;5041788;28;20141;-72
2022/07/25 04:32:49;;;;;;;11.43;10.43;;;;;;;;;;5033348;28;20032;-72
2022/07/25 04:35:14;;;;;;;11.23;10.02;;;;;;;;;;5028679;28;20433;-74
2022/07/25 04:37:39;;;;;;;11.63;10.35;;;;;;;;;;5036461;28;20035;-71
2022/07/25 04:40:05;;;;;;;10.98;10.07;;;;;;;;;;5029676;28;20124;-73
2022/07/25 04:42:31;;;;;;;10.70;9.60;;;;;;;;;;5015752;28;20040;-71
2022/07/25 04:44:57;;;;;;;11.20;10.23;;;;;;;;;;5023010;28;21023;-75
2022/07/25 04:47:22;;;;;;;10.60;9.70;;;;;;;;;;5029648;28;20075;-72
2022/07/25 04:49:48;;;;;;;10.38;9.48;;;;;;;;;;5028855;28;20036;-72
2022/07/25 04:52:13;;;;;;;11.13;10.10;;;;;;;;;;5033971;28;20417;-74
2022/07/25 04:54:38;;;;;;;12.05;10.30;;;;;;;;;;5040041;28;20052;-71
2022/07/25 04:57:04;;;;;;;11.52;10.43;;;;;;;;;;5041154;28;20021;-71
2022/07/25 04:59:30;;;;;;;12.55;10.18;;;;;;;;;;5042257;28;20040;-73
2022/07/25 05:01:55;;;;;;;11.27;10.30;;;;;;;;;;5039134;28;20436;-71
2022/07/25 05:04:20;;;;;;;11.27;10.35;;;;;;;;;;5034030;28;20029;-74
2022/07/25 05:06:46;;;;;;;11.27;10.18;;;;;;;;;;5041614;28;20033;-72
2022/07/25 05:09:11;;;;;;;11.10;10.15;;;;;;;;;;5041090;28;20104;-70
2022/07/25 05:11:36;;;;;;;11.90;10.85;;;;;;;;;;5041549;28;20348;-70
2022/07/25 05:14:02;;;;;;;10.68;9.77;;;;;;;;;;5041734;28;20029;-72
2022/07/25 05:16:27;;;;;;;11.63;10.63;;;;;;;;;;5042040;28;21385;-75
2022/07/25 05:18:52;;;;;;;11.50;10.50;;;;;;;;;;5042325;28;20108;-72
2022/07/25 05:21:18;;;;;;;11.50;10.27;;;;;;;;;;5036755;28;20040;-77
2022/07/25 05:23:43;;;;;;;11.52;10.43;;;;;;;;;;5035817;28;20029;-71
2022/07/25 05:26:08;;;;;;;11.60;10.60;;;;;;;;;;5041094;28;20116;-71
2022/07/25 05:28:34;;;;;;;11.38;10.38;;;;;;;;;;5039919;28;20056;-71
2022/07/25 05:30:59;;;;;;;11.60;10.60;;;;;;;;;;5042263;28;20321;-71
2022/07/25 05:33:25;;;;;;;11.32;10.18;;;;;;;;;;5041306;28;20032;-72
2022/07/25 05:35:50;;;;;;;11.80;10.65;;;;;;;;;;5041253;28;20440;-72
2022/07/25 05:38:16;;;;;;;11.73;10.75;;;;;;;;;;5041696;28;20378;-76
2022/07/25 05:40:41;;;;;;;11.52;10.52;;;;;;;;;;5041697;28;20025;-73
2022/07/25 05:43:07;;;;;;;10.85;9.52;;;;;;;;;;5041145;28;20032;-72
2022/07/25 05:45:33;;;;;;;11.82;10.82;;;;;;;;;;5042043;28;20029;-69
2022/07/25 05:47:58;;;;;;;11.13;10.05;;;;;;;;;;5041578;28;20035;-71
2022/07/25 05:50:23;;;;;;;11.90;10.68;;;;;;;;;;5041345;28;20017;-71
2022/07/25 05:52:49;;;;;;;11.63;10.30;;;;;;;;;;5041362;28;20033;-71
2022/07/25 05:55:14;;;;;;;10.48;9.52;;;;;;;;;;5039805;28;20044;-70
2022/07/25 05:57:40;;;;;;;10.63;9.75;;;;;;;;;;5040555;28;20033;-72
2022/07/25 06:00:05;;;;;;;11.88;10.77;;;;;;;;;;5040530;28;20610;-73
2022/07/25 06:02:31;;;;;;;11.55;10.45;;;;;;;;;;5041079;28;20025;-77
2022/07/25 06:04:57;;;;;;;12.30;10.63;;;;;;;;;;5040309;28;20033;-73
2022/07/25 06:07:22;;;;;;;11.32;10.00;;;;;;;;;;5040339;28;20028;-74
2022/07/25 06:09:48;;;;;;;11.07;9.95;;;;;;;;;;5041472;28;20039;-72
2022/07/25 06:12:13;;;;;;;11.48;9.73;;;;;;;;;;5040803;28;20029;-72
2022/07/25 06:14:38;;;;;;;10.55;9.50;;;;;;;;;;5041348;28;20029;-72
2022/07/25 06:17:04;;;;;;;11.05;9.90;;;;;;;;;;5041195;28;20443;-72
2022/07/25 06:19:29;;;;;;;10.15;9.25;;;;;;;;;;5041344;28;20492;-76
2022/07/25 06:21:54;;;;;;;10.65;9.55;;;;;;;;;;5040542;28;20040;-70
2022/07/25 06:24:20;;;;;;;9.70;8.90;;;;;;;;;;5039961;28;20041;-75
2022/07/25 06:26:45;;;;;;;9.32;8.63;;;;;;;;;;5041093;28;20025;-72
2022/07/25 06:40:55;;;;;;;9.25;8.45;;;;;;;;;;5041482;27;1455710;-76
2022/07/25 06:43:20;;;;;;;8.98;8.27;;;;;;;;;;5090722;28;20067;-77
2022/07/25 06:45:46;;;;;;;9.35;8.40;;;;;;;;;;5089925;28;20024;-76
2022/07/25 06:48:12;;;;;;;9.35;8.52;;;;;;;;;;5090227;28;20304;-76
2022/07/25 06:50:38;;;;;;;9.48;8.60;;;;;;;;;;5090453;28;20399;-76
2022/07/25 06:53:03;;;;;;;8.80;8.10;;;;;;;;;;5089905;28;20078;-77
2022/07/25 06:55:28;;;;;;;9.80;8.85;;;;;;;;;;5089849;28;20371;-77
2022/07/25 06:57:54;;;;;;;8.98;8.07;;;;;;;;;;5082877;28;20028;-77
2022/07/25 07:00:20;;;;;;;9.43;8.60;;;;;;;;;;5080496;28;20032;-77
2022/07/25 07:02:51;;;;;;;9.40;8.50;;;;;;;;;;5080930;28;20501;-78
2022/07/25 07:05:16;;;;;;;11.80;8.23;;;;;;;;;;5081038;28;20024;-77
2022/07/25 07:07:42;;;;;;;9.10;8.30;;;;;;;;;;5080895;28;20035;-77
2022/07/25 07:10:07;;;;;;;9.80;8.93;;;;;;;;;;5080141;28;20031;-77
2022/07/25 07:12:33;;;;;;;9.25;8.45;;;;;;;;;;5078740;28;20029;-78
2022/07/25 07:14:58;;;;;;;8.65;7.80;;;;;;;;;;5078141;28;20097;-77
2022/07/25 07:17:24;;;;;;;8.13;7.53;;;;;;;;;;5078140;28;20035;-77
2022/07/25 07:19:49;;;;;;;9.85;7.90;;;;;;;;;;5081513;28;20446;-77
2022/07/25 07:22:14;;;;;;;8.77;8.07;;;;;;;;;;5080578;28;20090;-77
2022/07/25 07:24:40;;;;;;;9.05;8.15;;;;;;;;;;5080887;28;20035;-77
2022/07/25 07:27:05;;;;;;;8.20;7.50;;;;;;;;;;5080582;28;20415;-77
2022/07/25 07:29:30;;;;;;;8.38;7.68;;;;;;;;;;5080363;28;20080;-76
2022/07/25 07:31:56;;;;;;;8.75;8.05;;;;;;;;;;5080678;28;20125;-78
2022/07/25 07:34:21;;;;;;;8.40;7.70;;;;;;;;;;5080671;28;20324;-77
2022/07/25 07:36:46;;;;;;;8.40;7.60;;;;;;;;;;5081224;28;20024;-78
2022/07/25 07:39:12;;;;;;;8.98;7.47;;;;;;;;;;5080393;28;20117;-77
2022/07/25 07:41:37;;;;;;;8.95;8.07;;;;;;;;;;5068154;28;20012;-76
2022/07/25 07:44:04;;;;;;;7.82;7.22;;;;;;;;;;5067550;28;20342;-77
2022/07/25 07:46:29;;;;;;;8.85;7.85;;;;;;;;;;5066613;28;20028;-77
2022/07/25 07:48:55;;;;;;;8.20;7.53;;;;;;;;;;5066818;28;20097;-77
2022/07/25 07:51:20;;;;;;;8.48;7.80;;;;;;;;;;5066767;28;20032;-77
2022/07/25 07:56:29;;;;;;;8.05;7.32;;;;;;;;;;5066743;28;20035;-77
2022/07/25 07:58:54;;;;;;;9.10;8.18;;;;;;;;;;5066572;28;20032;-78
2022/07/25 08:01:20;;;;;;;7.30;6.60;;;;;;;;;;5067068;28;20036;-78
2022/07/25 08:03:45;;;;;;;7.60;7.03;;;;;;;;;;5066806;28;20166;-77
2022/07/25 08:06:11;;;;;;;11.15;7.50;;;;;;;;;;5066406;28;20032;-77
2022/07/25 08:08:36;;;;;;;7.80;7.20;;;;;;;;;;5049057;28;20040;-79
2022/07/25 08:11:02;;;;;;;8.02;6.70;;;;;;;;;;5066366;28;20028;-79
2022/07/25 08:13:28;;;;;;;7.18;6.57;;;;;;;;;;5066739;28;20028;-78
2022/07/25 08:15:56;;;;;;;9.57;7.40;;;;;;;;;;5066775;28;20549;-79
2022/07/25 08:18:22;;;;;;;6.97;6.45;;;;;;;;;;5066196;28;20020;-77
2022/07/25 08:20:48;;;;;;;8.15;7.35;;;;;;;;;;5066110;28;20127;-79
2022/07/25 08:23:14;;;;;;;7.47;6.78;;;;;;;;;;5066024;28;20020;-76
2022/07/25 08:25:39;;;;;;;7.15;6.60;;;;;;;;;;5063655;28;20086;-78
2022/07/25 08:28:07;;;;;;;8.05;7.25;;;;;;;;;;5066489;28;20021;-78
2022/07/25 08:30:36;;;;;;;8.18;7.47;;;;;;;;;;5066067;28;20033;-78
2022/07/25 08:33:02;;;;;;;7.80;7.20;;;;;;;;;;5065953;28;20025;-77
2022/07/25 08:35:28;;;;;;;8.18;7.53;;;;;;;;;;5065893;28;20036;-77
2022/07/25 08:37:54;;;;;;;7.45;6.85;;;;;;;;;;5066122;28;20028;-77
2022/07/25 08:40:20;;;;;;;7.45;6.85;;;;;;;;;;5065942;28;20044;-77
2022/07/25 08:42:46;;;;;;;7.45;6.70;;;;;;;;;;5066236;28;20020;-78
2022/07/25 08:45:12;;;;;;;7.68;6.97;;;;;;;;;;5066343;28;20089;-77
2022/07/25 08:47:38;;;;;;;7.90;7.10;;;;;;;;;;5066397;28;20025;-77
2022/07/25 08:50:05;;;;;;;7.40;6.78;;;;;;;;;;5065932;28;20465;-77
2022/07/25 08:52:34;;;;;;;6.80;6.20;;;;;;;;;;5065014;28;20078;-77
2022/07/25 08:55:01;;;;;;;7.30;6.70;;;;;;;;;;5063750;28;20016;-78
2022/07/25 08:57:27;;;;;;;8.20;7.40;;;;;;;;;;5065607;28;20526;-79
2022/07/25 08:59:52;;;;;;;8.07;7.32;;;;;;;;;;5065840;28;20067;-77
2022/07/25 09:02:17;;;;;;;7.70;7.10;;;;;;;;;;5065876;28;20112;-78
2022/07/25 09:04:43;;;;;;;7.03;6.25;;;;;;;;;;5065765;28;20394;-78
2022/07/25 09:07:08;;;;;;;7.32;6.70;;;;;;;;;;5065219;28;20112;-77
2022/07/25 09:09:35;;;;;;;7.40;6.80;;;;;;;;;;5066002;28;20044;-78
2022/07/25 09:12:01;;;;;;;7.25;6.65;;;;;;;;;;5065636;28;20025;-78
2022/07/25 09:14:28;;;;;;;7.18;6.57;;;;;;;;;;5065685;28;20033;-78
2022/07/25 09:16:54;;;;;;;6.90;6.30;;;;;;;;;;5065299;28;20051;-79
2022/07/25 09:19:20;;;;;;;7.43;6.82;;;;;;;;;;5065121;28;20029;-84
2022/07/25 09:21:59;;;;;;;7.22;6.72;;;;;;;;;;5065424;28;20020;-79
2022/07/25 09:24:24;;;;;;;7.65;6.88;;;;;;;;;;5065338;28;20115;-79
2022/07/25 09:26:51;;;;;;;6.00;5.60;;;;;;;;;;5065150;28;20098;-80
2022/07/25 09:29:27;;;;;;;7.03;6.43;;;;;;;;;;5064991;28;20146;-79
2022/07/25 09:31:53;;;;;;;7.00;6.32;;;;;;;;;;5065310;28;20035;-81
2022/07/25 09:34:37;;;;;;;6.72;6.22;;;;;;;;;;5065034;28;20055;-80
2022/07/25 09:37:03;;;;;;;6.43;5.75;;;;;;;;;;5065086;28;20028;-78
2022/07/25 09:39:39;;;;;;;6.53;5.97;;;;;;;;;;5064885;28;20111;-77
2022/07/25 09:42:15;;;;;;;5.97;5.50;;;;;;;;;;5047114;28;20020;-78
2022/07/25 09:44:40;;;;;;;6.57;5.97;;;;;;;;;;5065162;28;20431;-77
2022/07/25 09:47:09;;;;;;;6.60;6.00;;;;;;;;;;5065233;28;20039;-82
2022/07/25 09:49:42;;;;;;;7.07;6.38;;;;;;;;;;5065073;28;20060;-83
2022/07/25 09:52:08;;;;;;;6.43;5.60;;;;;;;;;;5065280;28;20059;-80
2022/07/25 09:54:34;;;;;;;5.90;5.47;;;;;;;;;;5065169;28;20358;-81
2022/07/25 09:56:59;;;;;;;6.25;5.75;;;;;;;;;;5065022;28;20024;-79
2022/07/25 09:59:25;;;;;;;6.05;5.57;;;;;;;;;;5065413;28;20028;-76
2022/07/25 10:01:56;;;;;;;6.22;5.70;;;;;;;;;;5064707;28;20020;-84
2022/07/25 10:04:23;;;;;;;6.28;5.68;;;;;;;;;;5065036;28;20127;-79
2022/07/25 10:06:56;;;;;;;6.47;5.93;;;;;;;;;;5065059;28;20056;-84
2022/07/25 10:09:21;;;;;;;7.13;5.30;;;;;;;;;;5065292;28;20028;-78
2022/07/25 10:12:06;;;;;;;6.57;5.25;;;;;;;;;;5065368;28;20323;-80
2022/07/25 10:14:32;;;;;;;5.72;5.22;;;;;;;;;;5065235;28;20051;-83
2022/07/25 10:16:58;;;;;;;5.95;5.45;;;;;;;;;;5046971;28;20020;-82
2022/07/25 10:19:40;;;;;;;6.53;6.03;;;;;;;;;;5065598;28;20430;-79
2022/07/25 10:22:06;;;;;;;6.47;5.22;;;;;;;;;;5063917;28;20446;-81
2022/07/25 10:24:32;;;;;;;5.88;5.43;;;;;;;;;;5064875;28;20020;-79
2022/07/25 10:27:05;;;;;;;5.95;5.38;;;;;;;;;;5067725;28;20025;-80
2022/07/25 10:29:34;;;;;;;5.78;5.07;;;;;;;;;;5065613;28;20455;-81
2022/07/25 10:32:12;;;;;;;5.65;5.15;;;;;;;;;;5065890;28;20028;-78
2022/07/25 10:34:38;;;;;;;6.97;5.38;;;;;;;;;;5067134;28;20176;-77
2022/07/25 10:37:14;;;;;;;5.13;4.65;;;;;;;;;;5068212;28;20029;-81
2022/07/25 10:39:40;;;;;;;5.85;5.43;;;;;;;;;;5067971;28;20101;-78
2022/07/25 10:42:06;;;;;;;5.53;5.13;;;;;;;;;;5066847;28;20024;-76
2022/07/25 10:44:44;;;;;;;5.70;5.15;;;;;;;;;;5065499;28;20039;-78
2022/07/25 10:47:10;;;;;;;6.43;5.82;;;;;;;;;;5065722;28;20393;-84
2022/07/25 10:49:37;;;;;;;5.82;5.35;;;;;;;;;;5064934;28;20029;-78
2022/07/25 10:52:03;;;;;;;7.28;5.65;;;;;;;;;;5064676;28;20028;-77
2022/07/25 10:54:36;;;;;;;8.70;5.10;;;;;;;;;;5065087;28;20411;-80
2022/07/25 10:57:02;;;;;;;5.40;4.90;;;;;;;;;;5065259;28;20023;-79
2022/07/25 10:59:32;;;;;;;5.85;5.35;;;;;;;;;;5064332;28;20039;-79
2022/07/25 11:01:58;;;;;;;5.32;4.82;;;;;;;;;;5064734;28;20051;-79
2022/07/25 11:04:24;;;;;;;5.50;5.10;;;;;;;;;;5062271;28;20063;-77
2022/07/25 11:06:49;;;;;;;5.15;4.75;;;;;;;;;;5064747;28;20386;-78
2022/07/25 11:09:14;;;;;;;5.57;5.18;;;;;;;;;;5064997;28;20463;-79
2022/07/25 11:11:47;;;;;;;5.55;4.93;;;;;;;;;;5064383;28;20030;-78
2022/07/25 11:14:47;;;;;;;5.72;5.22;;;;;;;;;;5064710;28;20401;-80
2022/07/25 11:17:18;;;;;;;5.13;4.70;;;;;;;;;;4967135;28;20041;-79
2022/07/25 11:19:52;;;;;;;5.80;5.30;;;;;;;;;;4967047;28;20552;-81
2022/07/25 11:22:17;;;;;;;5.07;4.63;;;;;;;;;;4967021;28;20038;-79
2022/07/25 11:24:43;;;;;;;5.10;4.70;;;;;;;;;;4967377;28;20038;-78
2022/07/25 11:27:10;;;;;;;4.97;4.57;;;;;;;;;;4966924;28;20069;-78
2022/07/25 11:29:39;;;;;;;4.97;4.47;;;;;;;;;;4967044;28;20030;-80
2022/07/25 11:32:05;;;;;;;5.70;5.20;;;;;;;;;;4967287;28;20053;-80
2022/07/25 11:34:31;;;;;;;5.35;4.95;;;;;;;;;;4966777;28;20053;-80
2022/07/25 11:36:58;;;;;;;6.20;5.70;;;;;;;;;;4967203;28;20093;-83
2022/07/25 11:39:27;;;;;;;6.55;6.00;;;;;;;;;;4966848;28;20118;-77
2022/07/25 11:41:59;;;;;;;6.25;5.75;;;;;;;;;;4966827;28;20035;-79
2022/07/25 11:44:36;;;;;;;6.65;5.30;;;;;;;;;;4966934;28;20034;-81
2022/07/25 11:47:02;;;;;;;7.35;5.13;;;;;;;;;;4966776;28;20034;-82
2022/07/25 11:49:28;;;;;;;5.25;4.85;;;;;;;;;;4966825;28;20457;-79
2022/07/25 11:51:53;;;;;;;5.40;4.95;;;;;;;;;;5045427;28;20044;-77
2022/07/25 11:54:19;;;;;;;5.38;4.97;;;;;;;;;;5067885;28;20025;-80
2022/07/25 11:56:46;;;;;;;6.03;5.63;;;;;;;;;;5067675;28;20393;-79
2022/07/25 11:59:11;;;;;;;6.13;5.50;;;;;;;;;;5067836;28;20106;-83
2022/07/25 12:01:40;;;;;;;7.07;5.10;;;;;;;;;;5067481;28;20459;-82
2022/07/25 12:04:17;;;;;;;6.20;5.68;;;;;;;;;;5067806;28;20040;-82
2022/07/25 12:06:43;;;;;;;6.07;5.15;;;;;;;;;;5068180;28;20645;-80
2022/07/25 12:09:12;;;;;;;6.60;5.88;;;;;;;;;;5067084;28;20029;-79
2022/07/25 12:11:37;;;;;;;5.78;5.20;;;;;;;;;;5067153;28;20044;-77
2022/07/25 12:14:04;;;;;;;5.45;5.05;;;;;;;;;;5067385;28;20025;-79
2022/07/25 12:16:30;;;;;;;5.93;5.45;;;;;;;;;;5066824;28;20317;-81
2022/07/25 12:18:55;;;;;;;6.65;4.20;;;;;;;;;;5067367;28;20016;-80
2022/07/25 12:21:21;;;;;;;5.25;4.85;;;;;;;;;;5067096;28;20024;-81
2022/07/25 12:23:46;;;;;;;5.28;4.72;;;;;;;;;;5066799;28;20031;-77
2022/07/25 12:26:13;;;;;;;5.75;5.25;;;;;;;;;;5066966;28;20021;-78
2022/07/25 12:28:38;;;;;;;5.28;4.78;;;;;;;;;;5066936;28;20075;-79
2022/07/25 12:31:04;;;;;;;6.40;5.80;;;;;;;;;;5066866;28;20119;-77
2022/07/25 12:33:31;;;;;;;5.15;4.72;;;;;;;;;;5066745;28;20020;-80
2022/07/25 12:35:57;;;;;;;5.93;5.43;;;;;;;;;;5066119;28;20078;-77
2022/07/25 12:38:22;;;;;;;5.80;5.35;;;;;;;;;;5066930;28;20024;-79
2022/07/25 12:40:48;;;;;;;5.30;4.85;;;;;;;;;;5066901;28;20191;-78
2022/07/25 12:43:13;;;;;;;5.90;5.30;;;;;;;;;;5066401;28;20228;-81
2022/07/25 12:45:39;;;;;;;5.03;4.63;;;;;;;;;;5066722;28;20024;-79
2022/07/25 12:48:04;;;;;;;5.68;5.22;;;;;;;;;;5063671;28;20033;-80
2022/07/25 12:50:30;;;;;;;6.97;6.35;;;;;;;;;;5063581;28;20131;-79
2022/07/25 12:52:55;;;;;;;5.85;5.30;;;;;;;;;;5066405;28;20107;-82
2022/07/25 12:55:21;;;;;;;6.30;5.80;;;;;;;;;;5066662;28;20032;-82
2022/07/25 12:57:46;;;;;;;6.22;5.72;;;;;;;;;;5066331;28;20024;-81
2022/07/25 13:00:13;;;;;;;6.20;5.63;;;;;;;;;;5066366;28;20028;-78
2022/07/25 13:02:39;;;;;;;5.85;5.32;;;;;;;;;;5066556;28;20028;-81
2022/07/25 13:05:05;;;;;;;6.63;6.13;;;;;;;;;;5066044;28;20077;-80
2022/07/25 13:07:31;;;;;;;6.43;4.70;;;;;;;;;;5066556;28;20021;-79
2022/07/25 13:09:56;;;;;;;6.13;5.40;;;;;;;;;;5066245;28;20139;-78
2022/07/25 13:12:22;;;;;;;5.75;5.25;;;;;;;;;;5065967;28;20111;-81
2022/07/25 13:14:48;;;;;;;6.40;5.72;;;;;;;;;;5066149;28;20028;-78
2022/07/25 13:17:13;;;;;;;6.30;5.70;;;;;;;;;;5065662;28;20032;-78
2022/07/25 13:19:39;;;;;;;5.93;5.43;;;;;;;;;;5063063;28;20032;-77
2022/07/25 13:22:05;;;;;;;5.32;4.93;;;;;;;;;;5065310;28;20024;-76
2022/07/25 13:24:30;;;;;;;5.65;5.25;;;;;;;;;;5053729;28;20029;-76
2022/07/25 13:26:55;;;;;;;6.88;6.35;;;;;;;;;;5065774;28;20442;-77
2022/07/25 13:29:21;;;;;;;6.25;5.68;;;;;;;;;;5064706;28;20090;-75
2022/07/25 13:31:46;;;;;;;5.85;5.40;;;;;;;;;;5056011;28;20740;-76
2022/07/25 13:34:11;;;;;;;6.60;6.00;;;;;;;;;;5057539;28;20102;-78
2022/07/25 13:36:37;;;;;;;6.20;5.70;;;;;;;;;;5054902;28;20038;-78
2022/07/25 13:39:04;;;;;;;6.40;5.90;;;;;;;;;;5059976;28;20048;-75
2022/07/25 13:41:29;;;;;;;6.45;5.85;;;;;;;;;;5065200;28;20063;-75
2022/07/25 13:43:54;;;;;;;6.53;6.00;;;;;;;;;;5063341;28;20032;-77
2022/07/25 13:46:20;;;;;;;6.45;5.88;;;;;;;;;;5054759;28;20024;-76
2022/07/25 13:48:45;;;;;;;6.60;6.05;;;;;;;;;;5054853;28;20025;-80
2022/07/25 13:51:11;;;;;;;6.80;6.30;;;;;;;;;;5055628;28;20107;-81
2022/07/25 13:53:36;;;;;;;7.60;6.43;;;;;;;;;;5055015;28;20452;-75
2022/07/25 13:56:02;;;;;;;6.22;5.63;;;;;;;;;;5055126;28;20025;-76
2022/07/25 13:58:27;;;;;;;6.55;5.80;;;;;;;;;;5055715;28;20359;-83
2022/07/25 14:00:53;;;;;;;5.90;5.40;;;;;;;;;;5053960;28;20052;-76
2022/07/25 14:03:18;;;;;;;6.30;5.80;;;;;;;;;;5050828;28;20055;-77
2022/07/25 14:05:43;;;;;;;6.80;6.10;;;;;;;;;;5055148;28;20103;-78
2022/07/25 14:08:09;;;;;;;5.60;4.95;;;;;;;;;;5060923;28;20024;-76
2022/07/25 14:10:34;;;;;;;7.13;6.47;;;;;;;;;;5065188;28;20377;-76
2022/07/25 14:13:00;;;;;;;5.90;5.50;;;;;;;;;;5065372;28;20024;-77
2022/07/25 14:15:26;;;;;;;5.97;5.38;;;;;;;;;;5065000;28;20021;-78
2022/07/25 14:17:51;;;;;;;6.07;5.22;;;;;;;;;;5065573;28;20779;-80
2022/07/25 14:20:17;;;;;;;6.60;5.40;;;;;;;;;;5065147;28;20056;-80
2022/07/25 14:22:43;;;;;;;6.63;5.75;;;;;;;;;;5064343;28;20439;-81
2022/07/25 14:25:08;;;;;;;5.68;5.18;;;;;;;;;;5056809;28;20030;-79
2022/07/25 14:27:34;;;;;;;5.80;5.32;;;;;;;;;;5065091;28;20020;-77
2022/07/25 14:29:59;;;;;;;6.10;5.60;;;;;;;;;;5064859;28;20178;-78
2022/07/25 14:32:25;;;;;;;5.72;5.22;;;;;;;;;;5064755;28;20098;-77
2022/07/25 14:34:51;;;;;;;6.00;5.50;;;;;;;;;;5065097;28;20067;-75
2022/07/25 14:37:17;;;;;;;6.00;5.50;;;;;;;;;;5055247;28;20024;-78
2022/07/25 14:39:43;;;;;;;6.63;6.05;;;;;;;;;;5054353;28;20123;-83
2022/07/25 14:42:10;;;;;;;7.40;5.85;;;;;;;;;;5054358;28;20104;-77
2022/07/25 14:44:35;;;;;;;5.88;5.30;;;;;;;;;;5054804;28;20020;-80